Terminal Aerodrome Forecast
Issued by NWS

Home | Current Version | Previous Version | Text Only | Print | Product List | Glossary On
Versions: 1 2 3 4 5 6 7 8 9 10 11 12 13 14 15 16 17 18 19 20 21 22 23 24 25 26 27 28 29 30 31 32
000
FTUS45 KGJT 051729
TAFEGE
TAF
KEGE 051729Z 0518/0618 26004KT P6SM VCSH FEW100 OVC200
     FM051900 24012KT P6SM VCTS SCT050CB BKN080
      TEMPO 0519/0523 -TSRA BKN050CB
     FM060000 25010KT 6SM -SHRA OVC060
     FM060600 03005KT P6SM BKN100=

USA.gov is the U.S. government's official web portal to all federal, state and local government web resources and services.